sensor_id;sensor_type;location;lat;lon;timestamp;P1;durP1;ratioP1;P2;durP2;ratioP2
4555;SDS011;2290;48.674;9.018;2023-04-19T00:00:46;10.57;;;5.57;;
4555;SDS011;2290;48.674;9.018;2023-04-19T00:03:11;12.47;;;6.10;;
4555;SDS011;2290;48.674;9.018;2023-04-19T00:05:38;9.73;;;5.77;;
4555;SDS011;2290;48.674;9.018;2023-04-19T00:08:04;8.13;;;5.60;;
4555;SDS011;2290;48.674;9.018;2023-04-19T00:10:29;10.60;;;6.10;;
4555;SDS011;2290;48.674;9.018;2023-04-19T00:12:55;8.70;;;5.50;;
4555;SDS011;2290;48.674;9.018;2023-04-19T00:15:21;14.10;;;6.03;;
4555;SDS011;2290;48.674;9.018;2023-04-19T00:17:47;9.00;;;5.33;;
4555;SDS011;2290;48.674;9.018;2023-04-19T00:20:14;8.67;;;5.03;;
4555;SDS011;2290;48.674;9.018;2023-04-19T00:22:39;10.77;;;5.80;;
4555;SDS011;2290;48.674;9.018;2023-04-19T00:25:05;10.37;;;5.93;;
4555;SDS011;2290;48.674;9.018;2023-04-19T00:27:31;12.23;;;6.37;;
4555;SDS011;2290;48.674;9.018;2023-04-19T00:29:57;8.90;;;5.60;;
4555;SDS011;2290;48.674;9.018;2023-04-19T00:32:22;9.10;;;5.53;;
4555;SDS011;2290;48.674;9.018;2023-04-19T00:34:48;11.50;;;6.60;;
4555;SDS011;2290;48.674;9.018;2023-04-19T00:37:14;7.07;;;4.70;;
4555;SDS011;2290;48.674;9.018;2023-04-19T00:39:39;9.90;;;6.10;;
4555;SDS011;2290;48.674;9.018;2023-04-19T00:42:06;9.80;;;5.90;;
4555;SDS011;2290;48.674;9.018;2023-04-19T00:44:32;9.67;;;5.90;;
4555;SDS011;2290;48.674;9.018;2023-04-19T00:46:58;11.40;;;6.53;;
4555;SDS011;2290;48.674;9.018;2023-04-19T00:49:25;14.30;;;6.60;;
4555;SDS011;2290;48.674;9.018;2023-04-19T00:51:51;8.83;;;5.70;;
4555;SDS011;2290;48.674;9.018;2023-04-19T00:54:17;10.13;;;5.90;;
4555;SDS011;2290;48.674;9.018;2023-04-19T00:56:44;12.70;;;6.17;;
4555;SDS011;2290;48.674;9.018;2023-04-19T00:59:11;10.77;;;6.20;;
4555;SDS011;2290;48.674;9.018;2023-04-19T01:01:38;9.97;;;6.10;;
4555;SDS011;2290;48.674;9.018;2023-04-19T01:04:04;9.43;;;5.73;;
4555;SDS011;2290;48.674;9.018;2023-04-19T01:06:30;10.93;;;5.70;;
4555;SDS011;2290;48.674;9.018;2023-04-19T01:08:57;9.10;;;5.50;;
4555;SDS011;2290;48.674;9.018;2023-04-19T01:11:23;10.50;;;6.43;;
4555;SDS011;2290;48.674;9.018;2023-04-19T01:13:49;11.10;;;5.80;;
4555;SDS011;2290;48.674;9.018;2023-04-19T01:16:15;9.57;;;6.03;;
4555;SDS011;2290;48.674;9.018;2023-04-19T01:18:42;10.20;;;6.30;;
4555;SDS011;2290;48.674;9.018;2023-04-19T01:21:08;13.43;;;6.07;;
4555;SDS011;2290;48.674;9.018;2023-04-19T01:23:36;10.80;;;5.60;;
4555;SDS011;2290;48.674;9.018;2023-04-19T01:26:03;11.10;;;5.77;;
4555;SDS011;2290;48.674;9.018;2023-04-19T01:28:30;9.97;;;5.97;;
4555;SDS011;2290;48.674;9.018;2023-04-19T01:30:56;13.30;;;6.60;;
4555;SDS011;2290;48.674;9.018;2023-04-19T01:33:22;9.17;;;5.83;;
4555;SDS011;2290;48.674;9.018;2023-04-19T01:35:49;8.93;;;5.70;;
4555;SDS011;2290;48.674;9.018;2023-04-19T01:38:16;11.83;;;6.40;;
4555;SDS011;2290;48.674;9.018;2023-04-19T01:40:42;15.70;;;6.93;;
4555;SDS011;2290;48.674;9.018;2023-04-19T01:43:12;11.83;;;6.57;;
4555;SDS011;2290;48.674;9.018;2023-04-19T01:45:40;10.47;;;6.27;;
4555;SDS011;2290;48.674;9.018;2023-04-19T01:48:08;13.20;;;6.13;;
4555;SDS011;2290;48.674;9.018;2023-04-19T01:50:33;10.40;;;6.20;;
4555;SDS011;2290;48.674;9.018;2023-04-19T01:52:59;12.43;;;6.50;;
4555;SDS011;2290;48.674;9.018;2023-04-19T01:55:26;10.90;;;6.03;;
4555;SDS011;2290;48.674;9.018;2023-04-19T01:57:52;12.40;;;6.63;;
4555;SDS011;2290;48.674;9.018;2023-04-19T02:00:18;10.10;;;6.30;;
4555;SDS011;2290;48.674;9.018;2023-04-19T02:02:45;10.47;;;5.90;;
4555;SDS011;2290;48.674;9.018;2023-04-19T02:05:12;10.20;;;6.40;;
4555;SDS011;2290;48.674;9.018;2023-04-19T02:07:38;10.30;;;6.07;;
4555;SDS011;2290;48.674;9.018;2023-04-19T02:10:05;10.43;;;5.70;;
4555;SDS011;2290;48.674;9.018;2023-04-19T02:12:33;13.10;;;6.57;;
4555;SDS011;2290;48.674;9.018;2023-04-19T02:15:00;13.03;;;6.50;;
4555;SDS011;2290;48.674;9.018;2023-04-19T02:17:30;12.80;;;7.03;;
4555;SDS011;2290;48.674;9.018;2023-04-19T02:19:57;12.03;;;6.97;;
4555;SDS011;2290;48.674;9.018;2023-04-19T02:22:23;13.80;;;6.17;;
4555;SDS011;2290;48.674;9.018;2023-04-19T02:24:49;12.07;;;6.57;;
4555;SDS011;2290;48.674;9.018;2023-04-19T02:27:15;13.03;;;6.53;;
4555;SDS011;2290;48.674;9.018;2023-04-19T02:29:43;11.77;;;6.17;;
4555;SDS011;2290;48.674;9.018;2023-04-19T02:32:11;11.17;;;6.30;;
4555;SDS011;2290;48.674;9.018;2023-04-19T02:34:36;13.27;;;7.13;;
4555;SDS011;2290;48.674;9.018;2023-04-19T02:37:03;12.03;;;7.13;;
4555;SDS011;2290;48.674;9.018;2023-04-19T02:39:30;14.47;;;6.50;;
4555;SDS011;2290;48.674;9.018;2023-04-19T02:41:56;11.60;;;6.90;;
4555;SDS011;2290;48.674;9.018;2023-04-19T02:44:22;10.17;;;6.00;;
4555;SDS011;2290;48.674;9.018;2023-04-19T02:46:49;11.13;;;7.10;;
4555;SDS011;2290;48.674;9.018;2023-04-19T02:49:16;12.00;;;6.80;;
4555;SDS011;2290;48.674;9.018;2023-04-19T02:51:42;9.10;;;5.93;;
4555;SDS011;2290;48.674;9.018;2023-04-19T02:54:08;10.43;;;6.73;;
4555;SDS011;2290;48.674;9.018;2023-04-19T02:56:35;13.77;;;6.87;;
4555;SDS011;2290;48.674;9.018;2023-04-19T02:59:00;11.83;;;6.20;;
4555;SDS011;2290;48.674;9.018;2023-04-19T03:01:28;10.57;;;5.97;;
4555;SDS011;2290;48.674;9.018;2023-04-19T03:03:54;11.07;;;6.63;;
4555;SDS011;2290;48.674;9.018;2023-04-19T03:06:20;13.03;;;7.03;;
4555;SDS011;2290;48.674;9.018;2023-04-19T03:08:45;14.87;;;6.70;;
4555;SDS011;2290;48.674;9.018;2023-04-19T03:11:11;11.90;;;6.97;;
4555;SDS011;2290;48.674;9.018;2023-04-19T03:13:39;10.30;;;6.00;;
4555;SDS011;2290;48.674;9.018;2023-04-19T03:16:05;13.13;;;6.50;;
4555;SDS011;2290;48.674;9.018;2023-04-19T03:18:31;14.30;;;6.47;;
4555;SDS011;2290;48.674;9.018;2023-04-19T03:20:58;14.40;;;6.70;;
4555;SDS011;2290;48.674;9.018;2023-04-19T03:23:24;13.27;;;8.00;;
4555;SDS011;2290;48.674;9.018;2023-04-19T03:25:51;15.50;;;7.87;;
4555;SDS011;2290;48.674;9.018;2023-04-19T03:28:18;15.30;;;7.80;;
4555;SDS011;2290;48.674;9.018;2023-04-19T03:30:44;12.67;;;7.10;;
4555;SDS011;2290;48.674;9.018;2023-04-19T03:33:10;13.37;;;7.00;;
4555;SDS011;2290;48.674;9.018;2023-04-19T03:35:35;12.57;;;7.40;;
4555;SDS011;2290;48.674;9.018;2023-04-19T03:38:01;12.43;;;6.90;;
4555;SDS011;2290;48.674;9.018;2023-04-19T03:40:26;11.97;;;7.00;;
4555;SDS011;2290;48.674;9.018;2023-04-19T03:42:52;11.20;;;6.70;;
4555;SDS011;2290;48.674;9.018;2023-04-19T03:45:17;11.17;;;6.57;;
4555;SDS011;2290;48.674;9.018;2023-04-19T03:47:43;15.17;;;7.20;;
4555;SDS011;2290;48.674;9.018;2023-04-19T03:50:09;12.97;;;6.83;;
4555;SDS011;2290;48.674;9.018;2023-04-19T03:52:36;13.53;;;8.03;;
4555;SDS011;2290;48.674;9.018;2023-04-19T03:55:05;11.37;;;6.40;;
4555;SDS011;2290;48.674;9.018;2023-04-19T03:57:32;14.63;;;6.13;;
4555;SDS011;2290;48.674;9.018;2023-04-19T03:59:59;12.67;;;7.07;;
4555;SDS011;2290;48.674;9.018;2023-04-19T04:02:25;15.30;;;7.80;;
4555;SDS011;2290;48.674;9.018;2023-04-19T04:04:54;13.20;;;8.07;;
4555;SDS011;2290;48.674;9.018;2023-04-19T04:07:21;12.70;;;7.30;;
4555;SDS011;2290;48.674;9.018;2023-04-19T04:09:47;15.57;;;8.40;;
4555;SDS011;2290;48.674;9.018;2023-04-19T04:12:13;14.60;;;7.40;;
4555;SDS011;2290;48.674;9.018;2023-04-19T04:14:39;15.27;;;7.40;;
4555;SDS011;2290;48.674;9.018;2023-04-19T04:17:05;14.30;;;7.77;;
4555;SDS011;2290;48.674;9.018;2023-04-19T04:19:31;16.83;;;7.77;;
4555;SDS011;2290;48.674;9.018;2023-04-19T04:21:58;17.00;;;8.37;;
4555;SDS011;2290;48.674;9.018;2023-04-19T04:24:24;15.30;;;7.50;;
4555;SDS011;2290;48.674;9.018;2023-04-19T04:26:53;15.37;;;8.37;;
4555;SDS011;2290;48.674;9.018;2023-04-19T04:29:18;15.50;;;7.10;;
4555;SDS011;2290;48.674;9.018;2023-04-19T04:31:44;14.23;;;7.63;;
4555;SDS011;2290;48.674;9.018;2023-04-19T04:34:09;18.33;;;8.37;;
4555;SDS011;2290;48.674;9.018;2023-04-19T04:36:35;15.10;;;7.93;;
4555;SDS011;2290;48.674;9.018;2023-04-19T04:39:01;17.70;;;8.50;;
4555;SDS011;2290;48.674;9.018;2023-04-19T04:41:27;16.00;;;7.57;;
4555;SDS011;2290;48.674;9.018;2023-04-19T04:43:56;12.87;;;7.27;;
4555;SDS011;2290;48.674;9.018;2023-04-19T04:46:24;13.83;;;7.70;;
4555;SDS011;2290;48.674;9.018;2023-04-19T04:48:51;16.33;;;9.43;;
4555;SDS011;2290;48.674;9.018;2023-04-19T04:51:18;15.93;;;7.90;;
4555;SDS011;2290;48.674;9.018;2023-04-19T04:53:46;13.07;;;7.20;;
4555;SDS011;2290;48.674;9.018;2023-04-19T04:56:13;16.20;;;7.83;;
4555;SDS011;2290;48.674;9.018;2023-04-19T04:58:38;14.77;;;8.43;;
4555;SDS011;2290;48.674;9.018;2023-04-19T05:01:04;17.37;;;8.73;;
4555;SDS011;2290;48.674;9.018;2023-04-19T05:03:30;14.80;;;8.47;;
4555;SDS011;2290;48.674;9.018;2023-04-19T05:05:56;14.80;;;7.80;;
4555;SDS011;2290;48.674;9.018;2023-04-19T05:08:22;17.40;;;8.10;;
4555;SDS011;2290;48.674;9.018;2023-04-19T05:10:47;15.87;;;7.77;;
4555;SDS011;2290;48.674;9.018;2023-04-19T05:13:15;15.67;;;8.87;;
4555;SDS011;2290;48.674;9.018;2023-04-19T05:15:41;12.67;;;7.13;;
4555;SDS011;2290;48.674;9.018;2023-04-19T05:18:06;14.70;;;8.37;;
4555;SDS011;2290;48.674;9.018;2023-04-19T05:20:32;13.27;;;7.73;;
4555;SDS011;2290;48.674;9.018;2023-04-19T05:22:58;12.83;;;7.50;;
4555;SDS011;2290;48.674;9.018;2023-04-19T05:25:25;16.73;;;8.47;;
4555;SDS011;2290;48.674;9.018;2023-04-19T05:27:51;14.07;;;8.13;;
4555;SDS011;2290;48.674;9.018;2023-04-19T05:30:16;13.70;;;7.60;;
4555;SDS011;2290;48.674;9.018;2023-04-19T05:32:42;13.20;;;7.80;;
4555;SDS011;2290;48.674;9.018;2023-04-19T05:35:08;15.70;;;9.53;;
4555;SDS011;2290;48.674;9.018;2023-04-19T05:37:34;13.43;;;7.47;;
4555;SDS011;2290;48.674;9.018;2023-04-19T05:40:01;16.00;;;8.37;;
4555;SDS011;2290;48.674;9.018;2023-04-19T05:42:30;16.00;;;7.87;;
4555;SDS011;2290;48.674;9.018;2023-04-19T05:44:55;14.33;;;7.63;;
4555;SDS011;2290;48.674;9.018;2023-04-19T05:47:21;15.20;;;8.87;;
4555;SDS011;2290;48.674;9.018;2023-04-19T05:49:47;13.63;;;7.77;;
4555;SDS011;2290;48.674;9.018;2023-04-19T05:52:13;18.80;;;8.37;;
4555;SDS011;2290;48.674;9.018;2023-04-19T05:54:39;17.00;;;8.43;;
4555;SDS011;2290;48.674;9.018;2023-04-19T05:57:04;16.33;;;7.13;;
4555;SDS011;2290;48.674;9.018;2023-04-19T05:59:32;13.37;;;7.63;;
4555;SDS011;2290;48.674;9.018;2023-04-19T06:01:58;14.33;;;8.27;;
4555;SDS011;2290;48.674;9.018;2023-04-19T06:04:25;14.60;;;7.97;;
4555;SDS011;2290;48.674;9.018;2023-04-19T06:06:50;15.50;;;7.77;;
4555;SDS011;2290;48.674;9.018;2023-04-19T06:09:16;14.70;;;8.23;;
4555;SDS011;2290;48.674;9.018;2023-04-19T06:11:43;16.77;;;7.40;;
4555;SDS011;2290;48.674;9.018;2023-04-19T06:14:09;15.30;;;7.53;;
4555;SDS011;2290;48.674;9.018;2023-04-19T06:16:37;15.00;;;8.00;;
4555;SDS011;2290;48.674;9.018;2023-04-19T06:19:03;14.57;;;7.70;;
4555;SDS011;2290;48.674;9.018;2023-04-19T06:21:29;16.90;;;7.80;;
4555;SDS011;2290;48.674;9.018;2023-04-19T06:23:55;13.23;;;7.67;;
4555;SDS011;2290;48.674;9.018;2023-04-19T06:26:21;15.70;;;7.57;;
4555;SDS011;2290;48.674;9.018;2023-04-19T06:28:46;14.97;;;7.60;;
4555;SDS011;2290;48.674;9.018;2023-04-19T06:31:12;14.17;;;7.27;;
4555;SDS011;2290;48.674;9.018;2023-04-19T06:33:37;12.97;;;7.13;;
4555;SDS011;2290;48.674;9.018;2023-04-19T06:36:05;14.73;;;7.60;;
4555;SDS011;2290;48.674;9.018;2023-04-19T06:38:31;15.07;;;7.97;;
4555;SDS011;2290;48.674;9.018;2023-04-19T06:40:56;11.40;;;7.20;;
4555;SDS011;2290;48.674;9.018;2023-04-19T06:43:22;15.77;;;8.30;;
4555;SDS011;2290;48.674;9.018;2023-04-19T06:45:48;12.63;;;7.47;;
4555;SDS011;2290;48.674;9.018;2023-04-19T06:48:13;13.33;;;7.97;;
4555;SDS011;2290;48.674;9.018;2023-04-19T06:50:39;13.07;;;7.87;;
4555;SDS011;2290;48.674;9.018;2023-04-19T06:53:05;13.03;;;7.30;;
4555;SDS011;2290;48.674;9.018;2023-04-19T06:55:30;15.03;;;8.23;;
4555;SDS011;2290;48.674;9.018;2023-04-19T06:57:57;15.47;;;8.13;;
4555;SDS011;2290;48.674;9.018;2023-04-19T07:00:22;14.07;;;7.37;;
4555;SDS011;2290;48.674;9.018;2023-04-19T07:02:49;16.20;;;8.00;;
4555;SDS011;2290;48.674;9.018;2023-04-19T07:05:16;15.80;;;8.50;;
4555;SDS011;2290;48.674;9.018;2023-04-19T07:07:42;12.03;;;6.90;;
4555;SDS011;2290;48.674;9.018;2023-04-19T07:10:09;13.47;;;7.50;;
4555;SDS011;2290;48.674;9.018;2023-04-19T07:12:35;11.90;;;7.23;;
4555;SDS011;2290;48.674;9.018;2023-04-19T07:15:02;19.17;;;8.63;;
4555;SDS011;2290;48.674;9.018;2023-04-19T07:17:28;13.40;;;7.80;;
4555;SDS011;2290;48.674;9.018;2023-04-19T07:19:54;12.53;;;7.33;;
4555;SDS011;2290;48.674;9.018;2023-04-19T07:22:20;11.10;;;6.83;;
4555;SDS011;2290;48.674;9.018;2023-04-19T07:24:46;11.93;;;7.23;;
4555;SDS011;2290;48.674;9.018;2023-04-19T07:27:11;14.40;;;7.03;;
4555;SDS011;2290;48.674;9.018;2023-04-19T07:29:38;13.57;;;7.10;;
4555;SDS011;2290;48.674;9.018;2023-04-19T07:32:06;14.20;;;7.67;;
4555;SDS011;2290;48.674;9.018;2023-04-19T07:34:31;13.23;;;6.90;;
4555;SDS011;2290;48.674;9.018;2023-04-19T07:36:58;13.30;;;7.30;;
4555;SDS011;2290;48.674;9.018;2023-04-19T07:39:25;13.07;;;6.80;;
4555;SDS011;2290;48.674;9.018;2023-04-19T07:41:50;12.37;;;6.70;;
4555;SDS011;2290;48.674;9.018;2023-04-19T07:44:17;13.57;;;6.63;;
4555;SDS011;2290;48.674;9.018;2023-04-19T07:46:42;11.87;;;6.87;;
4555;SDS011;2290;48.674;9.018;2023-04-19T07:49:09;11.60;;;6.00;;
4555;SDS011;2290;48.674;9.018;2023-04-19T07:51:36;14.57;;;7.60;;
4555;SDS011;2290;48.674;9.018;2023-04-19T07:54:02;13.90;;;7.07;;
4555;SDS011;2290;48.674;9.018;2023-04-19T07:56:28;11.67;;;7.07;;
4555;SDS011;2290;48.674;9.018;2023-04-19T07:58:54;12.13;;;7.40;;
4555;SDS011;2290;48.674;9.018;2023-04-19T08:01:20;13.27;;;6.37;;
4555;SDS011;2290;48.674;9.018;2023-04-19T08:03:46;13.17;;;6.43;;
4555;SDS011;2290;48.674;9.018;2023-04-19T08:06:13;10.17;;;6.47;;
4555;SDS011;2290;48.674;9.018;2023-04-19T08:08:39;13.57;;;7.23;;
4555;SDS011;2290;48.674;9.018;2023-04-19T08:11:05;12.87;;;6.77;;
4555;SDS011;2290;48.674;9.018;2023-04-19T08:13:31;14.40;;;7.20;;
4555;SDS011;2290;48.674;9.018;2023-04-19T08:15:57;11.30;;;6.20;;
4555;SDS011;2290;48.674;9.018;2023-04-19T08:18:23;9.23;;;6.33;;
4555;SDS011;2290;48.674;9.018;2023-04-19T08:20:49;11.87;;;6.67;;
4555;SDS011;2290;48.674;9.018;2023-04-19T08:23:14;14.03;;;6.97;;
4555;SDS011;2290;48.674;9.018;2023-04-19T08:25:40;14.43;;;7.37;;
4555;SDS011;2290;48.674;9.018;2023-04-19T08:28:06;11.30;;;6.50;;
4555;SDS011;2290;48.674;9.018;2023-04-19T08:30:31;9.87;;;5.83;;
4555;SDS011;2290;48.674;9.018;2023-04-19T08:32:57;11.77;;;6.47;;
4555;SDS011;2290;48.674;9.018;2023-04-19T08:35:23;11.50;;;6.00;;
4555;SDS011;2290;48.674;9.018;2023-04-19T08:37:50;11.17;;;6.53;;
4555;SDS011;2290;48.674;9.018;2023-04-19T08:40:17;15.00;;;6.33;;
4555;SDS011;2290;48.674;9.018;2023-04-19T08:42:43;9.40;;;5.60;;
4555;SDS011;2290;48.674;9.018;2023-04-19T08:45:10;11.60;;;6.50;;
4555;SDS011;2290;48.674;9.018;2023-04-19T08:47:37;9.67;;;6.30;;
4555;SDS011;2290;48.674;9.018;2023-04-19T08:50:06;9.70;;;6.27;;
4555;SDS011;2290;48.674;9.018;2023-04-19T08:52:34;12.37;;;6.30;;
4555;SDS011;2290;48.674;9.018;2023-04-19T08:55:02;9.57;;;5.63;;
4555;SDS011;2290;48.674;9.018;2023-04-19T08:57:29;9.33;;;5.70;;
4555;SDS011;2290;48.674;9.018;2023-04-19T08:59:58;10.37;;;6.00;;
4555;SDS011;2290;48.674;9.018;2023-04-19T09:02:24;8.73;;;5.50;;
4555;SDS011;2290;48.674;9.018;2023-04-19T09:04:50;9.40;;;5.47;;
4555;SDS011;2290;48.674;9.018;2023-04-19T09:07:25;9.40;;;5.40;;
4555;SDS011;2290;48.674;9.018;2023-04-19T09:10:08;7.30;;;5.20;;
4555;SDS011;2290;48.674;9.018;2023-04-19T09:12:35;12.70;;;6.40;;
4555;SDS011;2290;48.674;9.018;2023-04-19T09:15:03;8.40;;;5.90;;
4555;SDS011;2290;48.674;9.018;2023-04-19T09:17:34;8.57;;;5.03;;
4555;SDS011;2290;48.674;9.018;2023-04-19T09:20:02;8.90;;;5.40;;
4555;SDS011;2290;48.674;9.018;2023-04-19T09:22:29;10.30;;;5.30;;
4555;SDS011;2290;48.674;9.018;2023-04-19T09:24:55;8.63;;;4.53;;
4555;SDS011;2290;48.674;9.018;2023-04-19T09:29:57;10.63;;;4.70;;
4555;SDS011;2290;48.674;9.018;2023-04-19T09:32:25;9.17;;;4.87;;
4555;SDS011;2290;48.674;9.018;2023-04-19T09:37:22;6.93;;;4.83;;
4555;SDS011;2290;48.674;9.018;2023-04-19T09:39:49;11.57;;;5.20;;
4555;SDS011;2290;48.674;9.018;2023-04-19T09:42:14;6.83;;;4.47;;
4555;SDS011;2290;48.674;9.018;2023-04-19T09:45:03;6.40;;;4.67;;
4555;SDS011;2290;48.674;9.018;2023-04-19T09:47:29;9.13;;;4.63;;
4555;SDS011;2290;48.674;9.018;2023-04-19T09:50:05;7.67;;;4.63;;
4555;SDS011;2290;48.674;9.018;2023-04-19T09:52:34;7.30;;;4.50;;
4555;SDS011;2290;48.674;9.018;2023-04-19T09:55:02;9.53;;;5.03;;
4555;SDS011;2290;48.674;9.018;2023-04-19T09:57:30;8.40;;;5.07;;
4555;SDS011;2290;48.674;9.018;2023-04-19T10:00:00;11.20;;;5.57;;
4555;SDS011;2290;48.674;9.018;2023-04-19T10:02:32;5.20;;;4.43;;
4555;SDS011;2290;48.674;9.018;2023-04-19T10:04:58;7.23;;;4.97;;
4555;SDS011;2290;48.674;9.018;2023-04-19T10:07:25;8.00;;;5.00;;
4555;SDS011;2290;48.674;9.018;2023-04-19T10:09:53;7.10;;;5.20;;
4555;SDS011;2290;48.674;9.018;2023-04-19T10:12:22;8.63;;;5.13;;
4555;SDS011;2290;48.674;9.018;2023-04-19T10:14:53;9.10;;;4.77;;
4555;SDS011;2290;48.674;9.018;2023-04-19T10:17:22;8.13;;;5.17;;
4555;SDS011;2290;48.674;9.018;2023-04-19T10:20:03;9.03;;;5.10;;
4555;SDS011;2290;48.674;9.018;2023-04-19T10:22:33;6.80;;;4.70;;
4555;SDS011;2290;48.674;9.018;2023-04-19T10:25:08;9.10;;;5.10;;
4555;SDS011;2290;48.674;9.018;2023-04-19T10:27:35;8.37;;;5.07;;
4555;SDS011;2290;48.674;9.018;2023-04-19T10:30:02;12.70;;;5.50;;
4555;SDS011;2290;48.674;9.018;2023-04-19T10:32:41;10.70;;;5.63;;
4555;SDS011;2290;48.674;9.018;2023-04-19T10:35:27;9.43;;;5.23;;
4555;SDS011;2290;48.674;9.018;2023-04-19T10:43:33;8.50;;;5.53;;
4555;SDS011;2290;48.674;9.018;2023-04-19T10:46:05;11.00;;;5.13;;
4555;SDS011;2290;48.674;9.018;2023-04-19T10:48:49;9.67;;;6.40;;
4555;SDS011;2290;48.674;9.018;2023-04-19T10:51:19;8.37;;;5.27;;
4555;SDS011;2290;48.674;9.018;2023-04-19T10:53:58;9.97;;;6.20;;
4555;SDS011;2290;48.674;9.018;2023-04-19T11:04:03;10.43;;;6.03;;
4555;SDS011;2290;48.674;9.018;2023-04-19T11:06:34;10.37;;;5.30;;
4555;SDS011;2290;48.674;9.018;2023-04-19T11:09:21;9.70;;;5.43;;
4555;SDS011;2290;48.674;9.018;2023-04-19T11:11:56;9.57;;;4.93;;
4555;SDS011;2290;48.674;9.018;2023-04-19T11:14:36;8.73;;;5.47;;
4555;SDS011;2290;48.674;9.018;2023-04-19T11:17:19;11.83;;;5.90;;
4555;SDS011;2290;48.674;9.018;2023-04-19T11:20:01;8.07;;;5.57;;
4555;SDS011;2290;48.674;9.018;2023-04-19T11:22:30;9.03;;;6.07;;
4555;SDS011;2290;48.674;9.018;2023-04-19T11:27:46;11.03;;;5.20;;
4555;SDS011;2290;48.674;9.018;2023-04-19T11:30:17;11.67;;;5.70;;
4555;SDS011;2290;48.674;9.018;2023-04-19T11:32:47;8.73;;;5.67;;
4555;SDS011;2290;48.674;9.018;2023-04-19T11:35:17;10.70;;;5.63;;
4555;SDS011;2290;48.674;9.018;2023-04-19T11:37:46;12.23;;;6.00;;
4555;SDS011;2290;48.674;9.018;2023-04-19T11:40:16;9.80;;;5.50;;
4555;SDS011;2290;48.674;9.018;2023-04-19T11:42:43;10.87;;;6.10;;
4555;SDS011;2290;48.674;9.018;2023-04-19T11:45:09;9.20;;;5.40;;
4555;SDS011;2290;48.674;9.018;2023-04-19T11:47:45;9.67;;;5.47;;
4555;SDS011;2290;48.674;9.018;2023-04-19T11:55:42;7.87;;;4.93;;
4555;SDS011;2290;48.674;9.018;2023-04-19T12:01:19;16.23;;;5.50;;
4555;SDS011;2290;48.674;9.018;2023-04-19T12:03:46;10.67;;;5.97;;
4555;SDS011;2290;48.674;9.018;2023-04-19T12:06:14;13.20;;;5.60;;
4555;SDS011;2290;48.674;9.018;2023-04-19T12:08:43;8.93;;;5.63;;
4555;SDS011;2290;48.674;9.018;2023-04-19T12:11:12;9.80;;;6.10;;
4555;SDS011;2290;48.674;9.018;2023-04-19T12:13:38;9.47;;;6.53;;
4555;SDS011;2290;48.674;9.018;2023-04-19T12:16:05;10.77;;;5.93;;
4555;SDS011;2290;48.674;9.018;2023-04-19T12:18:48;12.17;;;5.70;;
4555;SDS011;2290;48.674;9.018;2023-04-19T12:21:27;11.77;;;7.00;;
4555;SDS011;2290;48.674;9.018;2023-04-19T12:23:54;12.60;;;7.20;;
4555;SDS011;2290;48.674;9.018;2023-04-19T12:26:24;12.47;;;6.60;;
4555;SDS011;2290;48.674;9.018;2023-04-19T12:28:52;11.70;;;6.60;;
4555;SDS011;2290;48.674;9.018;2023-04-19T12:31:19;11.50;;;6.63;;
4555;SDS011;2290;48.674;9.018;2023-04-19T12:33:45;11.73;;;6.93;;
4555;SDS011;2290;48.674;9.018;2023-04-19T12:36:11;13.37;;;6.57;;
4555;SDS011;2290;48.674;9.018;2023-04-19T12:38:38;12.23;;;6.80;;
4555;SDS011;2290;48.674;9.018;2023-04-19T12:41:03;13.73;;;6.40;;
4555;SDS011;2290;48.674;9.018;2023-04-19T12:43:31;14.17;;;7.67;;
4555;SDS011;2290;48.674;9.018;2023-04-19T12:45:57;13.67;;;7.87;;
4555;SDS011;2290;48.674;9.018;2023-04-19T12:48:25;11.43;;;7.10;;
4555;SDS011;2290;48.674;9.018;2023-04-19T12:50:51;10.77;;;6.77;;
4555;SDS011;2290;48.674;9.018;2023-04-19T12:53:17;11.90;;;6.67;;
4555;SDS011;2290;48.674;9.018;2023-04-19T12:55:43;14.13;;;6.20;;
4555;SDS011;2290;48.674;9.018;2023-04-19T12:58:13;11.10;;;6.20;;
4555;SDS011;2290;48.674;9.018;2023-04-19T13:00:39;11.07;;;6.50;;
4555;SDS011;2290;48.674;9.018;2023-04-19T13:03:06;11.77;;;6.37;;
4555;SDS011;2290;48.674;9.018;2023-04-19T13:05:33;13.63;;;6.80;;
4555;SDS011;2290;48.674;9.018;2023-04-19T13:07:59;11.83;;;6.57;;
4555;SDS011;2290;48.674;9.018;2023-04-19T13:10:24;12.60;;;7.33;;
4555;SDS011;2290;48.674;9.018;2023-04-19T13:12:50;13.13;;;7.37;;
4555;SDS011;2290;48.674;9.018;2023-04-19T13:15:15;13.57;;;7.30;;
4555;SDS011;2290;48.674;9.018;2023-04-19T13:17:43;15.87;;;8.70;;
4555;SDS011;2290;48.674;9.018;2023-04-19T13:20:09;20.73;;;8.33;;
4555;SDS011;2290;48.674;9.018;2023-04-19T13:22:34;19.37;;;8.77;;
4555;SDS011;2290;48.674;9.018;2023-04-19T13:25:00;17.30;;;8.70;;
4555;SDS011;2290;48.674;9.018;2023-04-19T13:27:26;17.20;;;8.40;;
4555;SDS011;2290;48.674;9.018;2023-04-19T13:29:54;15.77;;;9.23;;
4555;SDS011;2290;48.674;9.018;2023-04-19T13:32:21;17.10;;;9.00;;
4555;SDS011;2290;48.674;9.018;2023-04-19T13:34:47;17.90;;;10.23;;
4555;SDS011;2290;48.674;9.018;2023-04-19T13:37:13;16.43;;;9.13;;
4555;SDS011;2290;48.674;9.018;2023-04-19T13:39:38;19.37;;;9.43;;
4555;SDS011;2290;48.674;9.018;2023-04-19T13:42:04;17.93;;;7.90;;
4555;SDS011;2290;48.674;9.018;2023-04-19T13:44:30;21.57;;;10.37;;
4555;SDS011;2290;48.674;9.018;2023-04-19T13:46:57;20.43;;;9.60;;
4555;SDS011;2290;48.674;9.018;2023-04-19T13:49:24;19.40;;;10.00;;
4555;SDS011;2290;48.674;9.018;2023-04-19T13:51:50;21.47;;;9.90;;
4555;SDS011;2290;48.674;9.018;2023-04-19T13:54:16;18.90;;;8.70;;
4555;SDS011;2290;48.674;9.018;2023-04-19T13:56:42;22.63;;;9.60;;
4555;SDS011;2290;48.674;9.018;2023-04-19T13:59:08;17.27;;;9.67;;
4555;SDS011;2290;48.674;9.018;2023-04-19T14:01:34;17.70;;;9.50;;
4555;SDS011;2290;48.674;9.018;2023-04-19T14:04:01;16.97;;;8.63;;
4555;SDS011;2290;48.674;9.018;2023-04-19T14:06:26;21.10;;;9.43;;
4555;SDS011;2290;48.674;9.018;2023-04-19T14:08:53;16.97;;;7.90;;
4555;SDS011;2290;48.674;9.018;2023-04-19T14:11:18;15.93;;;8.83;;
4555;SDS011;2290;48.674;9.018;2023-04-19T14:13:46;13.10;;;7.07;;
4555;SDS011;2290;48.674;9.018;2023-04-19T14:16:14;15.27;;;8.73;;
4555;SDS011;2290;48.674;9.018;2023-04-19T14:18:39;12.90;;;7.83;;
4555;SDS011;2290;48.674;9.018;2023-04-19T14:21:06;17.10;;;8.20;;
4555;SDS011;2290;48.674;9.018;2023-04-19T14:23:32;16.53;;;7.83;;
4555;SDS011;2290;48.674;9.018;2023-04-19T14:25:57;13.03;;;7.53;;
4555;SDS011;2290;48.674;9.018;2023-04-19T14:28:23;15.93;;;8.57;;
4555;SDS011;2290;48.674;9.018;2023-04-19T14:30:49;13.67;;;8.00;;
4555;SDS011;2290;48.674;9.018;2023-04-19T14:33:14;15.10;;;7.50;;
4555;SDS011;2290;48.674;9.018;2023-04-19T14:35:40;14.73;;;8.10;;
4555;SDS011;2290;48.674;9.018;2023-04-19T14:38:06;17.70;;;8.57;;
4555;SDS011;2290;48.674;9.018;2023-04-19T14:40:33;15.07;;;7.33;;
4555;SDS011;2290;48.674;9.018;2023-04-19T14:43:00;14.53;;;9.10;;
4555;SDS011;2290;48.674;9.018;2023-04-19T14:45:25;15.07;;;8.23;;
4555;SDS011;2290;48.674;9.018;2023-04-19T14:47:51;15.47;;;8.00;;
4555;SDS011;2290;48.674;9.018;2023-04-19T14:50:17;17.17;;;8.70;;
4555;SDS011;2290;48.674;9.018;2023-04-19T14:52:43;14.13;;;8.30;;
4555;SDS011;2290;48.674;9.018;2023-04-19T14:55:08;16.37;;;8.50;;
4555;SDS011;2290;48.674;9.018;2023-04-19T14:57:36;11.17;;;6.80;;
4555;SDS011;2290;48.674;9.018;2023-04-19T15:00:01;13.53;;;7.67;;
4555;SDS011;2290;48.674;9.018;2023-04-19T15:02:28;12.57;;;7.60;;
4555;SDS011;2290;48.674;9.018;2023-04-19T15:04:55;10.83;;;6.77;;
4555;SDS011;2290;48.674;9.018;2023-04-19T15:07:21;17.03;;;7.57;;
4555;SDS011;2290;48.674;9.018;2023-04-19T15:09:46;18.20;;;7.73;;
4555;SDS011;2290;48.674;9.018;2023-04-19T15:12:12;14.00;;;7.83;;
4555;SDS011;2290;48.674;9.018;2023-04-19T15:14:39;13.20;;;7.00;;
4555;SDS011;2290;48.674;9.018;2023-04-19T15:17:06;13.17;;;7.40;;
4555;SDS011;2290;48.674;9.018;2023-04-19T15:19:33;14.70;;;7.80;;
4555;SDS011;2290;48.674;9.018;2023-04-19T15:21:59;15.57;;;8.00;;
4555;SDS011;2290;48.674;9.018;2023-04-19T15:24:27;16.17;;;7.67;;
4555;SDS011;2290;48.674;9.018;2023-04-19T15:26:53;15.73;;;7.90;;
4555;SDS011;2290;48.674;9.018;2023-04-19T15:29:22;13.00;;;7.40;;
4555;SDS011;2290;48.674;9.018;2023-04-19T15:31:48;13.60;;;7.57;;
4555;SDS011;2290;48.674;9.018;2023-04-19T15:34:13;13.87;;;7.17;;